createdAt,value
2019-02-27T00:00:21.940Z,9.44
2019-02-27T00:01:02.359Z,9.5
2019-02-27T00:01:42.832Z,9.53
2019-02-27T00:02:23.406Z,9.53
2019-02-27T00:03:03.552Z,9.4
2019-02-27T00:03:43.948Z,9.42
2019-02-27T00:04:24.352Z,9.35
2019-02-27T00:05:05.920Z,9.37
2019-02-27T00:05:45.142Z,9.32
2019-02-27T00:06:25.538Z,9.31
2019-02-27T00:07:05.933Z,9.35
2019-02-27T00:07:46.331Z,9.37
2019-02-27T00:08:27.434Z,9.42
2019-02-27T00:09:07.191Z,9.52
2019-02-27T00:09:47.555Z,9.49
2019-02-27T00:10:27.946Z,9.44
2019-02-27T00:11:09.906Z,9.52
2019-02-27T00:11:48.708Z,9.5
2019-02-27T00:12:29.733Z,9.59
2019-02-27T00:13:10.146Z,9.53
2019-02-27T00:13:50.543Z,9.58
2019-02-27T00:14:31.744Z,9.63
2019-02-27T00:15:11.342Z,9.6
2019-02-27T00:15:51.733Z,9.65
2019-02-27T00:16:32.165Z,9.6
2019-02-27T00:17:15.048Z,9.62
2019-02-27T00:17:52.953Z,9.68
2019-02-27T00:18:33.350Z,9.7
2019-02-27T00:19:13.749Z,9.74
2019-02-27T00:19:54.147Z,9.73
2019-02-27T00:20:36.588Z,9.67
2019-02-27T00:21:14.953Z,9.71
2019-02-27T00:21:55.401Z,9.71
2019-02-27T00:22:35.806Z,9.75
2019-02-27T00:23:16.146Z,9.73
2019-02-27T00:23:56.846Z,9.7
2019-02-27T00:24:37.399Z,9.78
2019-02-27T00:25:17.784Z,9.75
2019-02-27T00:25:58.203Z,9.74
2019-02-27T00:26:39.474Z,9.68
2019-02-27T00:27:19.023Z,9.68
2019-02-27T00:27:59.452Z,9.68
2019-02-27T00:28:39.856Z,9.63
2019-02-27T00:29:20.279Z,9.68
2019-02-27T00:30:04.380Z,9.6
2019-02-27T00:30:41.099Z,9.7
2019-02-27T00:31:21.513Z,9.5
2019-02-27T00:32:01.937Z,9.53
2019-02-27T00:32:42.359Z,9.55
2019-02-27T00:33:25.377Z,9.44
2019-02-27T00:34:03.181Z,9.41
2019-02-27T00:34:43.568Z,9.42
2019-02-27T00:35:23.959Z,9.44
2019-02-27T00:36:04.358Z,9.37
2019-02-27T00:36:45.580Z,9.52
2019-02-27T00:37:25.188Z,9.45
2019-02-27T00:38:05.545Z,9.44
2019-02-27T00:38:45.939Z,9.38
2019-02-27T00:39:26.330Z,9.26
2019-02-27T00:40:06.767Z,9.35
2019-02-27T00:40:47.125Z,9.3
2019-02-27T00:41:27.511Z,9.22
2019-02-27T00:42:07.899Z,9.19
2019-02-27T00:42:48.301Z,9.27
2019-02-27T00:43:29.076Z,9.26
2019-02-27T00:44:10.131Z,9.27
2019-02-27T00:44:50.524Z,9.2
2019-02-27T00:45:30.909Z,9.27
2019-02-27T00:46:13.220Z,9.31
2019-02-27T00:46:51.727Z,9.22
2019-02-27T00:47:32.138Z,9.3
2019-02-27T00:48:12.586Z,9.31
2019-02-27T00:48:52.995Z,9.24
2019-02-27T00:49:33.421Z,9.3
2019-02-27T00:50:13.824Z,9.31
2019-02-27T00:50:54.224Z,9.27
2019-02-27T00:51:34.650Z,9.23
2019-02-27T00:52:17.983Z,9.12
2019-02-27T00:52:55.432Z,9.06
2019-02-27T00:53:35.848Z,8.94
2019-02-27T00:54:16.207Z,8.94
2019-02-27T00:54:56.600Z,8.94
2019-02-27T00:55:39.291Z,8.93
2019-02-27T00:56:17.415Z,8.96
2019-02-27T00:56:57.794Z,8.89
2019-02-27T00:57:38.184Z,8.76
2019-02-27T00:58:18.599Z,8.91
2019-02-27T00:59:00.124Z,8.93
2019-02-27T00:59:39.362Z,8.93
2019-02-27T01:00:19.730Z,8.79
2019-02-27T01:01:00.112Z,8.79
2019-02-27T01:01:40.496Z,8.78
2019-02-27T01:02:20.937Z,8.78
2019-02-27T01:03:01.339Z,8.79
2019-02-27T01:03:41.758Z,8.8
2019-02-27T01:04:22.100Z,8.76
2019-02-27T01:05:02.540Z,8.83
2019-02-27T01:05:42.936Z,8.79
2019-02-27T01:06:23.377Z,8.88
2019-02-27T01:07:03.743Z,8.93
2019-02-27T01:07:44.103Z,8.91
2019-02-27T01:08:25.042Z,8.98
2019-02-27T01:09:06.346Z,8.94
2019-02-27T01:09:45.348Z,8.91
2019-02-27T01:10:25.734Z,8.97
2019-02-27T01:11:06.176Z,8.98
2019-02-27T01:11:51.427Z,8.93
2019-02-27T01:12:26.962Z,8.94
2019-02-27T01:13:07.381Z,8.91
2019-02-27T01:13:47.797Z,8.98
2019-02-27T01:14:28.158Z,8.93
2019-02-27T01:15:10.527Z,8.91
2019-02-27T01:15:48.965Z,8.94
2019-02-27T01:16:29.380Z,9.01
2019-02-27T01:17:09.835Z,9
2019-02-27T01:17:50.243Z,8.98
2019-02-27T01:18:31.394Z,8.98
2019-02-27T01:19:10.996Z,8.93
2019-02-27T01:19:51.429Z,8.93
2019-02-27T01:20:31.815Z,8.73
2019-02-27T01:21:12.199Z,8.78
2019-02-27T01:21:52.617Z,8.75
2019-02-27T01:22:33.024Z,8.7
2019-02-27T01:23:13.422Z,8.65
2019-02-27T01:23:53.774Z,8.67
2019-02-27T01:24:34.178Z,8.71
2019-02-27T01:25:14.593Z,8.75
2019-02-27T01:25:56.829Z,8.71
2019-02-27T01:26:35.409Z,8.71
2019-02-27T01:27:15.796Z,8.71
2019-02-27T01:27:56.164Z,8.76
2019-02-27T01:28:36.586Z,8.67
2019-02-27T01:29:18.075Z,8.79
2019-02-27T01:29:57.381Z,8.79
2019-02-27T01:30:37.791Z,8.73
2019-02-27T01:31:18.215Z,8.71
2019-02-27T01:31:58.631Z,8.67
2019-02-27T01:32:38.980Z,8.54
2019-02-27T01:33:19.376Z,8.54
2019-02-27T01:34:00.770Z,8.6
2019-02-27T01:34:44.124Z,8.71
2019-02-27T01:35:21.608Z,8.64
2019-02-27T01:36:01.956Z,8.61
2019-02-27T01:36:42.333Z,8.63
2019-02-27T01:37:22.768Z,8.68
2019-02-27T01:38:05.250Z,8.61
2019-02-27T01:38:43.517Z,8.63
2019-02-27T01:39:23.920Z,8.7
2019-02-27T01:40:04.341Z,8.68
2019-02-27T01:40:44.695Z,8.76
2019-02-27T01:41:25.166Z,8.78
2019-02-27T01:42:05.503Z,8.8
2019-02-27T01:42:45.858Z,8.79
2019-02-27T01:43:26.277Z,8.88
2019-02-27T01:44:06.667Z,8.88
2019-02-27T01:44:47.227Z,8.89
2019-02-27T01:45:27.404Z,8.91
2019-02-27T01:46:07.822Z,8.94
2019-02-27T01:46:48.244Z,8.93
2019-02-27T01:47:28.637Z,8.93
2019-02-27T01:48:20.069Z,8.94
2019-02-27T01:49:00.467Z,8.93
2019-02-27T01:49:40.875Z,9
2019-02-27T01:50:23.284Z,8.98
2019-02-27T01:51:03.349Z,8.97
2019-02-27T01:51:43.750Z,8.88
2019-02-27T01:56:35.808Z,8.96
2019-02-27T01:57:25.903Z,8.83
2019-02-27T01:59:51.038Z,8.57
2019-02-27T02:00:29.220Z,8.55
2019-02-27T02:01:09.551Z,8.49
2019-02-27T02:01:49.939Z,8.5
2019-02-27T02:02:30.348Z,8.43
2019-02-27T02:03:11.122Z,8.4
2019-02-27T02:03:51.154Z,8.29
2019-02-27T02:04:31.625Z,8.31
2019-02-27T02:05:12.076Z,8.22
2019-02-27T02:05:52.426Z,8.18
2019-02-27T02:06:33.007Z,8.09
2019-02-27T02:07:13.213Z,8.2
2019-02-27T02:07:53.616Z,8.28
2019-02-27T02:08:34.072Z,8.24
2019-02-27T02:09:14.421Z,8.22
2019-02-27T02:09:55.752Z,8.17
2019-02-27T02:10:35.212Z,8.14
2019-02-27T02:11:15.620Z,8.14
2019-02-27T02:11:56.097Z,8.2
2019-02-27T02:12:36.445Z,8.27
2019-02-27T02:13:16.819Z,8.25
2019-02-27T02:13:57.189Z,8.21
2019-02-27T02:14:37.588Z,8.32
2019-02-27T02:15:17.975Z,8.31
2019-02-27T02:16:00.815Z,8.32
2019-02-27T02:16:38.763Z,8.32
2019-02-27T02:17:19.149Z,8.4
2019-02-27T02:17:59.564Z,8.46
2019-02-27T02:18:39.959Z,8.42
2019-02-27T02:19:21.380Z,8.47
2019-02-27T02:20:00.785Z,8.5
2019-02-27T02:20:41.152Z,8.49
2019-02-27T02:21:21.537Z,8.36
2019-02-27T02:22:01.972Z,8.39
2019-02-27T02:22:42.361Z,8.43
2019-02-27T02:23:22.790Z,8.39
2019-02-27T02:24:03.176Z,8.54
2019-02-27T02:24:43.595Z,8.42
2019-02-27T02:25:25.055Z,8.52
2019-02-27T02:26:04.432Z,8.49
2019-02-27T02:26:44.859Z,8.52
2019-02-27T02:27:25.262Z,8.42
2019-02-27T02:28:05.668Z,8.54
2019-02-27T02:28:48.208Z,8.52
2019-02-27T02:29:26.479Z,8.42
2019-02-27T02:30:06.867Z,8.43
2019-02-27T02:30:47.250Z,8.29
2019-02-27T02:31:27.636Z,8.31
2019-02-27T02:32:08.086Z,8.29
2019-02-27T02:37:33.671Z,8.13
2019-02-27T02:39:22.345Z,7.99
2019-02-27T02:40:13.625Z,7.95
2019-02-27T02:40:57.484Z,7.99
2019-02-27T02:41:37.993Z,7.89
2019-02-27T02:42:24.218Z,7.89
2019-02-27T02:43:03.063Z,7.94
2019-02-27T02:43:41.396Z,7.82
2019-02-27T02:44:20.980Z,7.84
2019-02-27T02:45:00.375Z,7.89
2019-02-27T02:45:40.662Z,7.95
2019-02-27T02:46:21.212Z,7.95
2019-02-27T02:47:01.589Z,8.03
2019-02-27T02:47:42.115Z,7.95
2019-02-27T02:48:22.588Z,8.02
2019-02-27T02:49:06.784Z,8
2019-02-27T02:49:43.967Z,7.91
2019-02-27T02:50:23.960Z,7.94
2019-02-27T02:51:04.428Z,7.96
2019-02-27T02:51:45.124Z,7.96
2019-02-27T02:52:25.622Z,7.94
2019-02-27T02:53:06.112Z,7.95
2019-02-27T02:53:48.704Z,7.84
2019-02-27T02:54:26.941Z,7.86
2019-02-27T02:55:11.857Z,7.79
2019-02-27T02:55:49.279Z,7.76
2019-02-27T02:56:29.206Z,7.74
2019-02-27T02:57:09.643Z,7.77
2019-02-27T02:57:50.280Z,7.81
2019-02-27T02:58:30.718Z,7.77
2019-02-27T02:59:11.085Z,7.74
2019-02-27T02:59:51.492Z,7.82
2019-02-27T03:00:37.681Z,7.77
2019-02-27T03:01:15.124Z,7.81
2019-02-27T03:01:53.159Z,7.94
2019-02-27T03:02:33.496Z,7.95
2019-02-27T03:03:13.997Z,7.95
2019-02-27T03:03:54.366Z,8.06
2019-02-27T03:04:35.152Z,7.95
2019-02-27T03:05:15.443Z,7.89
2019-02-27T03:05:59.633Z,7.94
2019-02-27T03:06:36.623Z,8
2019-02-27T03:07:17.188Z,7.99
2019-02-27T03:07:57.854Z,8.04
2019-02-27T03:08:38.148Z,8.09
2019-02-27T03:09:18.617Z,8.18
2019-02-27T03:09:59.241Z,8.2
2019-02-27T03:10:42.775Z,8.28
2019-02-27T03:11:20.392Z,8.22
2019-02-27T03:12:00.881Z,8.14
2019-02-27T03:12:41.273Z,8.17
2019-02-27T03:13:21.944Z,8.03
2019-02-27T03:14:02.135Z,7.99
2019-02-27T03:14:42.726Z,7.92
2019-02-27T03:15:28.360Z,8
2019-02-27T03:16:04.592Z,8.12
2019-02-27T03:16:44.331Z,8.17
2019-02-27T03:17:25.934Z,8.24
2019-02-27T03:18:06.190Z,8.17
2019-02-27T03:18:48.970Z,8.2
2019-02-27T03:19:32.189Z,8.1
2019-02-27T03:20:16.485Z,8.17
2019-02-27T03:20:54.122Z,8.1
2019-02-27T03:21:34.615Z,8.13
2019-02-27T03:22:15.481Z,8.06
2019-02-27T03:22:56.019Z,8.13
2019-02-27T03:23:36.665Z,8.04
2019-02-27T03:24:17.078Z,7.94
2019-02-27T03:25:03.453Z,7.94
2019-02-27T03:25:40.645Z,7.92
2019-02-27T03:26:18.881Z,7.96
2019-02-27T03:26:59.364Z,7.96
2019-02-27T03:27:40.053Z,7.95
2019-02-27T03:28:20.500Z,7.94
2019-02-27T03:29:00.801Z,7.95
2019-02-27T03:29:41.548Z,7.82
2019-02-27T03:30:21.947Z,7.86
2019-02-27T03:31:02.246Z,7.77
2019-02-27T03:31:43.033Z,7.63
2019-02-27T03:32:23.472Z,7.63
2019-02-27T03:33:03.885Z,7.6
2019-02-27T03:33:44.287Z,7.58
2019-02-27T03:34:24.724Z,7.57
2019-02-27T03:35:05.220Z,7.45
2019-02-27T03:35:45.757Z,7.37
2019-02-27T03:36:26.174Z,7.32
2019-02-27T03:37:13.067Z,7.3
2019-02-27T03:37:49.450Z,7.41
2019-02-27T03:38:29.164Z,7.41
2019-02-27T03:39:09.619Z,7.42
2019-02-27T03:39:50.329Z,7.26
2019-02-27T03:40:30.855Z,7.21
2019-02-27T03:41:11.344Z,7.32
2019-02-27T03:41:58.255Z,7.18
2019-02-27T03:42:34.091Z,7.21
2019-02-27T03:43:13.476Z,7.18
2019-02-27T03:43:53.981Z,7.16
2019-02-27T03:44:34.414Z,7.14
2019-02-27T03:45:14.881Z,7.01
2019-02-27T03:45:55.232Z,7.08
2019-02-27T03:46:40.396Z,7.08
2019-02-27T03:47:17.029Z,7
2019-02-27T03:47:56.745Z,7.09
2019-02-27T03:48:37.320Z,7.14
2019-02-27T03:49:19.960Z,7.18
2019-02-27T03:50:00.944Z,7.3
2019-02-27T03:50:41.487Z,7.24
2019-02-27T03:51:24.631Z,7.36
2019-02-27T03:52:02.235Z,7.45
2019-02-27T03:52:42.650Z,7.48
2019-02-27T03:53:23.062Z,7.48
2019-02-27T03:54:03.631Z,7.57
2019-02-27T03:54:43.927Z,7.54
2019-02-27T03:55:24.416Z,7.6
2019-02-27T03:56:08.935Z,7.58
2019-02-27T03:56:46.190Z,7.57
2019-02-27T03:57:26.453Z,7.55
2019-02-27T03:58:06.700Z,7.52
2019-02-27T03:58:47.739Z,7.6
2019-02-27T03:59:29.662Z,7.6
2019-02-27T04:00:10.043Z,7.57
2019-02-27T04:00:53.692Z,7.6
2019-02-27T04:01:31.554Z,7.5
2019-02-27T04:02:12.422Z,7.47
2019-02-27T04:02:52.636Z,7.55
2019-02-27T04:03:33.084Z,7.48
2019-02-27T04:04:13.476Z,7.48
2019-02-27T04:04:53.948Z,7.48
2019-02-27T04:05:34.327Z,7.37
2019-02-27T04:06:19.615Z,7.36
2019-02-27T04:06:56.241Z,7.42
2019-02-27T04:07:35.592Z,7.34
2019-02-27T04:08:16.039Z,7.3
2019-02-27T04:08:56.520Z,7.27
2019-02-27T04:09:37.177Z,7.14
2019-02-27T04:10:17.607Z,7.16
2019-02-27T04:10:58.192Z,7.12
2019-02-27T04:11:41.632Z,7.19
2019-02-27T04:12:19.067Z,7.36
2019-02-27T04:13:00.396Z,7.41
2019-02-27T04:13:41.849Z,7.36
2019-02-27T04:14:22.511Z,7.36
2019-02-27T04:15:02.934Z,7.32
2019-02-27T04:15:43.503Z,7.27
2019-02-27T04:16:28.798Z,7.27
2019-02-27T04:17:07.731Z,7.18
2019-02-27T04:20:50.660Z,7.15
2019-02-27T04:21:27.962Z,7.15
2019-02-27T04:22:08.380Z,7.16
2019-02-27T04:22:48.798Z,7.16
2019-02-27T04:25:02.181Z,7.12
2019-02-27T04:25:43.356Z,7.16
2019-02-27T04:26:23.785Z,7.19
2019-02-27T04:27:04.146Z,7.26
2019-02-27T04:27:44.610Z,7.14
2019-02-27T05:06:55.651Z,5.96
2019-02-27T05:09:03.234Z,5.9
2019-02-27T05:09:42.425Z,5.87
2019-02-27T05:10:23.013Z,5.9
2019-02-27T05:11:03.225Z,5.9
2019-02-27T05:11:48.222Z,5.85
2019-02-27T05:12:26.856Z,5.92
2019-02-27T05:13:07.254Z,5.92
2019-02-27T05:13:47.666Z,5.85
2019-02-27T05:14:28.216Z,5.93
2019-02-27T05:15:08.385Z,5.93
2019-02-27T05:15:48.800Z,5.93
2019-02-27T05:16:29.196Z,5.99
2019-02-27T05:17:09.637Z,5.98
2019-02-27T05:17:50.061Z,5.99
2019-02-27T05:18:30.382Z,5.99
2019-02-27T05:19:10.773Z,6.02
2019-02-27T05:19:52.013Z,5.95
2019-02-27T05:20:31.563Z,6.03
2019-02-27T05:21:11.987Z,6.02
2019-02-27T05:21:53.086Z,6.11
2019-02-27T05:22:32.814Z,6.17
2019-02-27T05:23:13.177Z,6.19
2019-02-27T05:23:53.584Z,6.24
2019-02-27T05:24:33.975Z,6.16
2019-02-27T05:25:15.121Z,6.16
2019-02-27T05:25:54.809Z,6.25
2019-02-27T05:26:35.155Z,6.11
2019-02-27T05:27:15.557Z,6.1
2019-02-27T05:27:55.971Z,6.11
2019-02-27T05:28:36.395Z,6.21
2019-02-27T05:29:18.709Z,6.17
2019-02-27T05:30:00.050Z,6.21
2019-02-27T05:30:39.490Z,6.13
2019-02-27T05:31:19.925Z,6.2
2019-02-27T05:32:00.260Z,6.2
2019-02-27T05:32:40.656Z,6.08
2019-02-27T05:33:21.039Z,6.21
2019-02-27T05:34:01.458Z,6.13
2019-02-27T05:34:41.863Z,6.06
2019-02-27T05:35:24.171Z,6.33
2019-02-27T05:36:02.680Z,6.27
2019-02-27T05:36:43.097Z,6.42
2019-02-27T05:37:23.485Z,6.43
2019-02-27T05:38:03.874Z,6.6
2019-02-27T05:38:44.313Z,6.54
2019-02-27T05:39:24.656Z,6.65
2019-02-27T05:40:05.111Z,6.63
2019-02-27T05:40:45.506Z,6.71
2019-02-27T05:41:26.383Z,6.65
2019-02-27T05:42:06.990Z,6.63
2019-02-27T05:42:47.172Z,6.68
2019-02-27T05:43:27.558Z,6.68
2019-02-27T05:44:07.945Z,6.71
2019-02-27T05:44:48.394Z,6.69
2019-02-27T05:45:31.086Z,6.68
2019-02-27T05:46:09.254Z,6.64
2019-02-27T05:46:49.786Z,6.57
2019-02-27T05:47:30.167Z,6.54
2019-02-27T05:48:10.634Z,6.61
2019-02-27T05:48:53.323Z,6.58
2019-02-27T05:49:32.304Z,6.54
2019-02-27T05:50:12.687Z,6.55
2019-02-27T05:50:53.138Z,6.72
2019-02-27T05:51:33.475Z,6.81
2019-02-27T05:52:14.278Z,6.87
2019-02-27T05:52:54.252Z,6.86
2019-02-27T05:53:34.671Z,6.89
2019-02-27T05:54:15.041Z,6.89
2019-02-27T05:54:55.440Z,6.82
2019-02-27T05:55:38.969Z,6.78
2019-02-27T05:56:16.509Z,6.69
2019-02-27T05:56:56.672Z,6.64
2019-02-27T05:57:37.087Z,6.76
2019-02-27T05:58:17.466Z,6.81
2019-02-27T05:58:57.893Z,6.82
2019-02-27T05:59:38.298Z,6.82
2019-02-27T06:00:18.715Z,6.86
2019-02-27T06:01:02.019Z,6.82
2019-02-27T06:01:40.532Z,6.81
2019-02-27T06:02:20.966Z,6.76
2019-02-27T06:03:01.384Z,6.65
2019-02-27T06:03:41.812Z,6.69
2019-02-27T06:04:24.903Z,6.65
2019-02-27T06:05:02.564Z,6.64
2019-02-27T06:05:49.361Z,6.57
2019-02-27T06:07:41.259Z,6.71
2019-02-27T06:08:21.982Z,6.79
2019-02-27T06:09:02.834Z,6.78
2019-02-27T06:09:46.090Z,6.75
2019-02-27T06:10:25.952Z,6.82
2019-02-27T06:11:07.309Z,6.75
2019-02-27T06:11:48.476Z,6.72
2019-02-27T06:12:28.318Z,6.76
2019-02-27T06:13:08.786Z,6.65
2019-02-27T06:13:50.982Z,6.78
2019-02-27T06:14:31.284Z,6.64
2019-02-27T06:15:11.680Z,6.71
2019-02-27T06:15:52.102Z,6.69
2019-02-27T06:16:36.984Z,6.76
2019-02-27T06:17:14.844Z,6.69
2019-02-27T06:17:55.253Z,6.65
2019-02-27T06:18:35.712Z,6.61
2019-02-27T06:19:16.366Z,6.68
2019-02-27T06:20:00.387Z,6.64
2019-02-27T06:30:03.639Z,6.79
2019-02-27T06:31:39.473Z,6.93
2019-02-27T06:32:25.241Z,6.93
2019-02-27T06:33:05.578Z,6.93
2019-02-27T06:33:45.992Z,7.05
2019-02-27T06:34:26.380Z,7
2019-02-27T06:35:06.951Z,7
2019-02-27T06:35:49.270Z,7.04
2019-02-27T06:36:27.629Z,6.96
2019-02-27T06:37:08.941Z,7.08
2019-02-27T06:37:50.689Z,7.16
2019-02-27T06:38:29.716Z,7.11
2019-02-27T06:39:10.124Z,7.15
2019-02-27T06:39:54.131Z,7.11
2019-02-27T06:40:32.851Z,7.21
2019-02-27T06:41:15.590Z,7.21
2019-02-27T06:41:53.600Z,7.32
2019-02-27T06:42:34.044Z,7.39
2019-02-27T06:43:14.409Z,7.57
2019-02-27T06:43:58.893Z,7.6
2019-02-27T06:44:39.166Z,7.6
2019-02-27T06:45:18.267Z,7.6
2019-02-27T06:45:58.555Z,7.63
2019-02-27T06:46:38.977Z,7.63
2019-02-27T06:47:19.362Z,7.71
2019-02-27T06:47:59.912Z,7.74
2019-02-27T06:48:43.465Z,7.79
2019-02-27T06:49:20.967Z,7.85
2019-02-27T06:50:01.457Z,7.81
2019-02-27T06:50:41.907Z,7.82
2019-02-27T06:51:22.303Z,7.89
2019-02-27T06:52:02.903Z,7.99
2019-02-27T06:52:43.400Z,8
2019-02-27T06:53:23.777Z,8.07
2019-02-27T06:54:04.220Z,8.2
2019-02-27T06:54:44.690Z,8.17
2019-02-27T06:55:28.021Z,8.29
2019-02-27T06:56:06.615Z,8.28
2019-02-27T06:56:47.001Z,8.27
2019-02-27T06:57:27.391Z,8.27
2019-02-27T06:58:07.793Z,8.36
2019-02-27T06:58:50.072Z,8.4
2019-02-27T06:59:28.638Z,8.47
2019-02-27T07:00:09.066Z,8.52
2019-02-27T07:00:49.589Z,8.64
2019-02-27T07:01:29.993Z,8.8
2019-02-27T07:02:10.446Z,8.91
2019-02-27T07:02:55.098Z,9
2019-02-27T07:03:32.939Z,9.12
2019-02-27T07:04:11.959Z,9.15
2019-02-27T07:04:52.492Z,9.13
2019-02-27T07:05:36.367Z,9.23
2019-02-27T07:06:21.234Z,9.35
2019-02-27T07:07:00.690Z,9.34
2019-02-27T07:07:41.138Z,9.45
2019-02-27T07:08:21.616Z,9.52
2019-02-27T07:09:02.568Z,9.5
2019-02-27T07:09:45.668Z,9.75
2019-02-27T07:10:25.329Z,9.78
2019-02-27T07:11:10.509Z,9.95
2019-02-27T07:11:48.768Z,10.04
2019-02-27T07:12:27.284Z,10.26
2019-02-27T07:13:07.230Z,10.34
2019-02-27T07:13:47.657Z,10.34
2019-02-27T07:14:28.975Z,10.32
2019-02-27T07:15:10.240Z,10.36
2019-02-27T07:15:49.932Z,10.38
2019-02-27T07:16:30.970Z,10.42
2019-02-27T07:17:12.078Z,10.58
2019-02-27T07:17:52.793Z,10.62
2019-02-27T07:18:32.690Z,10.75
2019-02-27T07:19:15.731Z,10.7
2019-02-27T07:20:14.925Z,10.86
2019-02-27T07:20:55.575Z,10.9
2019-02-27T07:21:36.794Z,10.88
2019-02-27T07:22:16.764Z,10.91
2019-02-27T07:22:57.344Z,10.94
2019-02-27T07:23:37.865Z,10.84
2019-02-27T07:24:18.417Z,10.66
2019-02-27T07:24:59.239Z,10.58
2019-02-27T07:25:41.895Z,10.62
2019-02-27T07:26:22.047Z,10.58
2019-02-27T07:27:02.466Z,10.47
2019-02-27T07:27:43.770Z,10.51
2019-02-27T07:28:26.146Z,10.42
2019-02-27T07:29:10.118Z,10.38
2019-02-27T07:29:51.542Z,10.28
2019-02-27T07:30:34.381Z,10.28
2019-02-27T07:31:18.361Z,10.22
2019-02-27T07:31:58.947Z,10.25
2019-02-27T07:32:39.298Z,10.35
2019-02-27T07:33:20.961Z,10.24
2019-02-27T07:34:01.902Z,10.22
2019-02-27T07:34:43.407Z,10.16
2019-02-27T07:35:26.290Z,10.18
2019-02-27T07:36:05.095Z,10.13
2019-02-27T07:36:55.615Z,9.96
2019-02-27T07:37:39.109Z,9.96
2019-02-27T07:38:21.587Z,10.04
2019-02-27T07:38:59.950Z,10.24
2019-02-27T07:39:42.083Z,10.28
2019-02-27T07:40:26.480Z,10.44
2019-02-27T07:41:09.894Z,10.66
2019-02-27T07:41:50.955Z,10.65
2019-02-27T07:42:33.935Z,10.86
2019-02-27T07:43:15.306Z,11.05
2019-02-27T07:43:56.528Z,11.21
2019-02-27T07:44:38.800Z,11.44
2019-02-27T07:45:19.751Z,11.59
2019-02-27T07:46:00.427Z,11.81
2019-02-27T07:46:41.054Z,11.98
2019-02-27T07:47:21.907Z,12.13
2019-02-27T07:48:02.266Z,12.18
2019-02-27T07:48:46.741Z,12.37
2019-02-27T07:49:28.304Z,12.41
2019-02-27T07:50:08.802Z,12.41
2019-02-27T07:50:49.061Z,12.43
2019-02-27T07:51:28.386Z,12.44
2019-02-27T07:52:08.866Z,12.59
2019-02-27T07:52:49.316Z,12.67
2019-02-27T07:53:29.714Z,12.79
2019-02-27T07:54:10.991Z,12.98
2019-02-27T07:54:51.451Z,12.95
2019-02-27T07:55:31.849Z,13.14
2019-02-27T07:56:13.951Z,13.22
2019-02-27T07:56:54.440Z,13.28
2019-02-27T07:57:35.396Z,13.48
2019-02-27T07:58:15.736Z,13.5
2019-02-27T07:58:56.124Z,13.57
2019-02-27T07:59:38.114Z,13.68
2019-02-27T08:00:16.897Z,13.86
2019-02-27T08:00:57.324Z,13.99
2019-02-27T08:01:43.620Z,14.13
2019-02-27T08:02:18.259Z,14.2
2019-02-27T08:02:58.739Z,14.26
2019-02-27T08:03:39.178Z,14.48
2019-02-27T08:04:22.727Z,14.59
2019-02-27T08:05:01.014Z,14.63
2019-02-27T08:05:41.511Z,14.78
2019-02-27T08:06:23.510Z,14.69
2019-02-27T08:07:02.308Z,14.87
2019-02-27T08:07:42.783Z,15.04
2019-02-27T08:08:27.468Z,15.19
2019-02-27T08:09:11.786Z,15.3
2019-02-27T08:11:21.455Z,15.59
2019-02-27T08:12:03.376Z,15.67
2019-02-27T08:12:43.773Z,15.86
2019-02-27T08:13:24.249Z,15.96
2019-02-27T08:14:06.574Z,16.08
2019-02-27T08:14:47.650Z,16.18
2019-02-27T08:15:27.485Z,16.36
2019-02-27T08:16:07.866Z,16.34
2019-02-27T08:16:48.400Z,16.4
2019-02-27T08:17:28.940Z,16.63
2019-02-27T08:18:09.440Z,16.55
2019-02-27T08:18:49.872Z,16.54
2019-02-27T08:19:30.822Z,16.59
2019-02-27T08:20:10.668Z,16.63
2019-02-27T08:20:52.049Z,16.73
2019-02-27T08:21:31.578Z,16.87
2019-02-27T08:22:12.896Z,16.98
2019-02-27T08:22:52.491Z,16.95
2019-02-27T08:23:32.982Z,17
2019-02-27T08:24:14.480Z,17.12
2019-02-27T08:24:54.894Z,17.07
2019-02-27T08:25:35.280Z,17.18
2019-02-27T08:26:15.719Z,17.3
2019-02-27T08:26:56.090Z,17.28
2019-02-27T08:27:36.570Z,17.4
2019-02-27T08:28:17.075Z,17.47
2019-02-27T08:28:57.518Z,17.54
2019-02-27T08:29:37.912Z,17.63
2019-02-27T08:30:18.356Z,17.89
2019-02-27T08:30:58.748Z,17.96
2019-02-27T08:31:39.153Z,18.07
2019-02-27T08:32:19.582Z,18.29
2019-02-27T08:32:59.999Z,18.32
2019-02-27T08:33:40.463Z,18.36
2019-02-27T08:34:20.931Z,18.35
2019-02-27T08:35:02.146Z,18.53
2019-02-27T08:35:42.507Z,18.71
2019-02-27T08:36:23.050Z,18.83
2019-02-27T08:37:03.387Z,18.82
2019-02-27T08:37:43.764Z,18.91
2019-02-27T08:38:24.189Z,18.93
2019-02-27T08:39:04.616Z,19.05
2019-02-27T08:39:45.003Z,19.09
2019-02-27T08:40:25.422Z,19.24
2019-02-27T08:41:05.774Z,19.27
2019-02-27T08:41:46.218Z,19.52
2019-02-27T08:42:26.753Z,19.61
2019-02-27T08:43:10.232Z,19.55
2019-02-27T08:43:47.581Z,19.62
2019-02-27T08:44:27.960Z,19.76
2019-02-27T08:45:08.432Z,19.7
2019-02-27T08:45:48.825Z,19.79
2019-02-27T08:46:29.270Z,19.7
2019-02-27T08:47:10.196Z,19.75
2019-02-27T08:47:50.148Z,19.89
2019-02-27T08:48:30.580Z,19.9
2019-02-27T08:49:10.998Z,20.04
2019-02-27T08:49:51.381Z,20.07
2019-02-27T08:50:32.345Z,19.98
2019-02-27T08:51:12.282Z,20.27
2019-02-27T08:51:54.396Z,20.31
2019-02-27T08:53:51.157Z,20.66
2019-02-27T08:55:53.385Z,20.88
2019-02-27T08:56:33.697Z,20.88
2019-02-27T08:57:14.068Z,20.9
2019-02-27T08:57:56.965Z,21.05
2019-02-27T08:58:36.485Z,21.03
2019-02-27T08:59:16.939Z,21.13
2019-02-27T08:59:57.690Z,21.12
2019-02-27T09:00:37.836Z,21.18
2019-02-27T09:01:18.991Z,21.16
2019-02-27T09:01:58.669Z,21.16
2019-02-27T09:02:39.688Z,21.16
2019-02-27T09:03:20.441Z,21.18
2019-02-27T09:03:59.919Z,21.24
2019-02-27T09:04:42.801Z,21.33
2019-02-27T09:05:20.925Z,21.48
2019-02-27T09:06:01.148Z,21.53
2019-02-27T09:06:41.576Z,21.71
2019-02-27T09:07:21.973Z,21.66
2019-02-27T09:08:02.404Z,21.63
2019-02-27T09:08:43.992Z,21.7
2019-02-27T09:09:23.325Z,21.81
2019-02-27T09:10:03.793Z,21.9
2019-02-27T09:10:44.271Z,22.01
2019-02-27T09:11:24.726Z,22.04
2019-02-27T09:12:05.283Z,22.26
2019-02-27T09:12:48.780Z,22.31
2019-02-27T09:13:26.197Z,22.42
2019-02-27T09:14:07.384Z,22.61
2019-02-27T09:14:47.375Z,22.7
2019-02-27T09:15:27.899Z,22.69
2019-02-27T09:16:08.234Z,22.6
2019-02-27T09:16:48.681Z,22.63
2019-02-27T09:17:29.036Z,22.66
2019-02-27T09:18:09.500Z,22.78
2019-02-27T09:18:49.893Z,22.82
2019-02-27T09:19:30.331Z,22.81
2019-02-27T09:20:11.400Z,22.91
2019-02-27T09:20:53.140Z,22.88
2019-02-27T09:21:32.668Z,22.93
2019-02-27T09:22:12.672Z,22.96
2019-02-27T09:22:53.167Z,22.86
2019-02-27T09:23:34.163Z,22.85
2019-02-27T09:24:16.419Z,23.11
2019-02-27T09:24:58.731Z,23.37
2019-02-27T09:25:38.644Z,23.37
2019-02-27T09:26:19.256Z,23.52
2019-02-27T09:27:01.072Z,23.72
2019-02-27T09:27:41.919Z,23.79
2019-02-27T09:28:22.886Z,23.9
2019-02-27T09:29:03.585Z,24
2019-02-27T09:29:44.188Z,24.16
2019-02-27T09:30:28.666Z,24.23
2019-02-27T09:31:05.471Z,24.39
2019-02-27T09:31:50.665Z,24.55
2019-02-27T09:32:27.420Z,24.55
2019-02-27T09:33:07.873Z,24.68
2019-02-27T09:33:48.370Z,24.84
2019-02-27T09:34:28.788Z,24.82
2019-02-27T09:36:27.423Z,25.2
2019-02-27T09:37:07.581Z,25.35
2019-02-27T09:37:50.642Z,25.39
2019-02-27T09:38:28.737Z,25.41
2019-02-27T09:39:10.152Z,25.45
2019-02-27T09:39:50.770Z,25.48
2019-02-27T09:40:31.480Z,25.38
2019-02-27T09:41:12.986Z,25.38
2019-02-27T09:41:53.015Z,25.45
2019-02-27T09:42:33.261Z,25.36
2019-02-27T09:43:13.701Z,25.45
2019-02-27T09:43:54.230Z,25.56
2019-02-27T09:44:36.562Z,25.38
2019-02-27T09:45:16.026Z,25.46
2019-02-27T09:45:55.900Z,25.63
2019-02-27T09:46:36.624Z,25.72
2019-02-27T09:47:17.237Z,25.69
2019-02-27T09:47:59.864Z,25.72
2019-02-27T09:48:39.030Z,25.72
2019-02-27T09:49:20.425Z,25.74
2019-02-27T09:50:00.562Z,25.71
2019-02-27T09:50:47.471Z,25.63
2019-02-27T09:51:24.458Z,25.57
2019-02-27T09:52:05.200Z,25.49
2019-02-27T09:52:45.640Z,25.48
2019-02-27T09:53:26.140Z,25.49
2019-02-27T09:54:08.106Z,25.46
2019-02-27T09:54:47.568Z,25.44
2019-02-27T09:55:27.767Z,25.48
2019-02-27T09:56:09.045Z,25.61
2019-02-27T09:56:49.188Z,25.64
2019-02-27T09:57:29.876Z,25.71
2019-02-27T09:58:11.620Z,25.83
2019-02-27T09:58:51.828Z,25.98
2019-02-27T09:59:32.282Z,26.13
2019-02-27T10:00:12.710Z,26.29
2019-02-27T10:00:53.129Z,26.35
2019-02-27T10:01:35.126Z,26.24
2019-02-27T10:02:15.554Z,26.27
2019-02-27T10:02:57.626Z,26.32
2019-02-27T10:03:36.495Z,26.36
2019-02-27T10:04:16.952Z,26.32
2019-02-27T10:05:01.397Z,26.21
2019-02-27T10:05:40.691Z,26.21
2019-02-27T10:06:18.733Z,26.13
2019-02-27T10:06:59.206Z,26.11
2019-02-27T10:07:39.562Z,26
2019-02-27T10:08:19.952Z,26.04
2019-02-27T10:09:00.433Z,26.04
2019-02-27T10:09:40.865Z,26.01
2019-02-27T10:10:21.285Z,25.96
2019-02-27T10:11:01.797Z,25.81
2019-02-27T10:11:43.233Z,25.94